createdAt,value
2023-04-11T00:00:16.337Z,29.60
2023-04-11T00:01:16.372Z,29.59
2023-04-11T00:02:16.413Z,29.60
2023-04-11T00:03:16.668Z,29.61
2023-04-11T00:04:16.665Z,29.60
2023-04-11T00:05:16.345Z,29.60
2023-04-11T00:06:16.333Z,29.60
2023-04-11T00:07:16.346Z,29.60
2023-04-11T00:08:16.418Z,29.59
2023-04-11T00:09:16.371Z,29.59
2023-04-11T00:10:16.367Z,29.59
2023-04-11T00:11:16.389Z,29.59
2023-04-11T00:12:16.489Z,29.57
2023-04-11T00:13:16.402Z,29.59
2023-04-11T00:14:16.500Z,29.56
2023-04-11T00:15:16.415Z,29.56
2023-04-11T00:16:16.444Z,29.59
2023-04-11T00:17:16.417Z,29.59
2023-04-11T00:18:16.466Z,29.57
2023-04-11T00:19:16.536Z,29.57
2023-04-11T00:20:16.551Z,29.57
2023-04-11T00:21:16.506Z,29.56
2023-04-11T00:22:16.478Z,29.57
2023-04-11T00:23:16.825Z,29.57
2023-04-11T00:24:16.516Z,29.56
2023-04-11T00:25:16.499Z,29.57
2023-04-11T00:26:16.553Z,29.56
2023-04-11T00:27:16.445Z,29.57
2023-04-11T00:28:16.396Z,29.57
2023-04-11T00:29:16.508Z,29.54
2023-04-11T00:30:16.417Z,29.54
2023-04-11T00:31:16.856Z,29.54
2023-04-11T00:32:16.571Z,29.54
2023-04-11T00:33:16.557Z,29.54
2023-04-11T00:34:16.545Z,29.54
2023-04-11T00:35:16.444Z,29.53
2023-04-11T00:36:16.679Z,29.56
2023-04-11T00:37:16.446Z,29.52
2023-04-11T00:38:16.455Z,29.53
2023-04-11T00:39:16.486Z,29.54
2023-04-11T00:40:16.420Z,29.52
2023-04-11T00:41:16.596Z,29.53
2023-04-11T00:42:16.484Z,29.52
2023-04-11T00:43:16.535Z,29.53
2023-04-11T00:44:16.462Z,29.53
2023-04-11T00:45:16.454Z,29.50
2023-04-11T00:46:16.569Z,29.50
2023-04-11T00:47:16.839Z,29.50
2023-04-11T00:48:16.584Z,29.50
2023-04-11T00:49:16.572Z,29.50
2023-04-11T00:50:16.563Z,29.50
2023-04-11T00:51:16.547Z,29.52
2023-04-11T00:52:16.596Z,29.49
2023-04-11T00:53:16.606Z,29.49
2023-04-11T00:54:16.660Z,29.52
2023-04-11T00:55:16.627Z,29.50
2023-04-11T00:56:16.545Z,29.50
2023-04-11T00:57:16.642Z,29.49
2023-04-11T00:58:16.544Z,29.49
2023-04-11T00:59:16.661Z,29.48
2023-04-11T01:00:16.522Z,29.50
2023-04-11T01:01:16.594Z,29.49
2023-04-11T01:02:16.661Z,29.49
2023-04-11T01:03:16.995Z,29.48
2023-04-11T01:04:16.578Z,29.48
2023-04-11T01:05:16.638Z,29.48
2023-04-11T01:06:16.568Z,29.49
2023-04-11T01:07:16.549Z,29.45
2023-04-11T01:08:16.710Z,29.48
2023-04-11T01:09:16.574Z,29.48
2023-04-11T01:10:16.621Z,29.48
2023-04-11T01:11:16.577Z,29.46
2023-04-11T01:12:16.596Z,29.46
2023-04-11T01:13:16.695Z,29.43
2023-04-11T01:14:16.710Z,29.46
2023-04-11T01:15:16.603Z,29.45
2023-04-11T01:16:16.655Z,29.45
2023-04-11T01:17:16.755Z,29.45
2023-04-11T01:18:16.736Z,29.46
2023-04-11T01:19:16.738Z,29.45
2023-04-11T01:20:16.640Z,29.45
2023-04-11T01:21:16.692Z,29.46
2023-04-11T01:22:16.655Z,29.42
2023-04-11T01:23:16.775Z,29.42
2023-04-11T01:24:16.777Z,29.42
2023-04-11T01:25:16.722Z,29.45
2023-04-11T01:26:16.682Z,29.42
2023-04-11T01:27:16.701Z,29.42
2023-04-11T01:28:16.815Z,29.40
2023-04-11T01:29:16.730Z,29.42
2023-04-11T01:30:16.754Z,29.39
2023-04-11T01:31:16.780Z,29.39
2023-04-11T01:32:16.790Z,29.39
2023-04-11T01:33:16.778Z,29.39
2023-04-11T01:34:16.791Z,29.37
2023-04-11T01:35:16.806Z,29.42
2023-04-11T01:36:16.898Z,29.40
2023-04-11T01:37:16.807Z,29.37
2023-04-11T01:38:16.924Z,29.36
2023-04-11T01:39:16.814Z,29.39
2023-04-11T01:40:16.931Z,29.39
2023-04-11T01:41:16.841Z,29.37
2023-04-11T01:42:16.845Z,29.34
2023-04-11T01:43:16.842Z,29.36
2023-04-11T01:44:16.915Z,29.34
2023-04-11T01:45:17.379Z,29.37
2023-04-11T01:46:16.904Z,29.36
2023-04-11T01:47:16.916Z,29.37
2023-04-11T01:48:17.461Z,29.39
2023-04-11T01:49:17.028Z,29.37
2023-04-11T01:50:17.051Z,29.37
2023-04-11T01:51:17.064Z,29.36
2023-04-11T01:52:17.084Z,29.37
2023-04-11T01:53:17.067Z,29.34
2023-04-11T01:54:16.990Z,29.36
2023-04-11T01:55:17.029Z,29.37
2023-04-11T01:56:17.119Z,29.34
2023-04-11T01:57:17.156Z,29.34
2023-04-11T01:58:17.333Z,29.34
2023-04-11T01:59:17.160Z,29.36
2023-04-11T02:00:17.175Z,29.33
2023-04-11T02:01:17.196Z,29.34
2023-04-11T02:02:17.401Z,29.34
2023-04-11T02:03:17.222Z,29.34
2023-04-11T02:04:17.324Z,29.33
2023-04-11T02:05:17.099Z,29.34
2023-04-11T02:06:17.180Z,29.34
2023-04-11T02:07:17.159Z,29.33
2023-04-11T02:08:17.166Z,29.34
2023-04-11T02:09:17.164Z,29.36
2023-04-11T02:10:17.123Z,29.34
2023-04-11T02:11:17.156Z,29.34
2023-04-11T02:12:17.150Z,29.33
2023-04-11T02:13:17.218Z,29.32
2023-04-11T02:14:17.221Z,29.33
2023-04-11T02:15:17.228Z,29.36
2023-04-11T02:16:17.297Z,29.33
2023-04-11T02:17:17.260Z,29.32
2023-04-11T02:18:17.262Z,29.33
2023-04-11T02:19:17.288Z,29.32
2023-04-11T02:20:17.304Z,29.32
2023-04-11T02:21:17.375Z,29.32
2023-04-11T02:22:17.318Z,29.30
2023-04-11T02:23:17.335Z,29.30
2023-04-11T02:24:17.437Z,29.32
2023-04-11T02:25:17.391Z,29.30
2023-04-11T02:26:17.433Z,29.28
2023-04-11T02:27:17.420Z,29.30
2023-04-11T02:28:17.425Z,29.29
2023-04-11T02:29:17.474Z,29.29
2023-04-11T02:30:17.471Z,29.30
2023-04-11T02:31:17.550Z,29.29
2023-04-11T02:32:17.589Z,29.29
2023-04-11T02:33:18.432Z,29.30
2023-04-11T02:34:18.637Z,29.29
2023-04-11T02:35:17.569Z,29.29
2023-04-11T02:36:17.599Z,29.29
2023-04-11T02:37:17.588Z,29.28
2023-04-11T02:38:17.583Z,29.30
2023-04-11T02:39:17.625Z,29.28
2023-04-11T02:40:17.680Z,29.29
2023-04-11T02:41:17.691Z,29.30
2023-04-11T02:42:17.823Z,29.30
2023-04-11T02:43:17.704Z,29.29
2023-04-11T02:44:17.752Z,29.26
2023-04-11T02:45:17.755Z,29.28
2023-04-11T02:46:17.887Z,29.30
2023-04-11T02:47:17.982Z,29.28
2023-04-11T02:48:17.845Z,29.28
2023-04-11T02:49:17.845Z,29.26
2023-04-11T02:50:17.880Z,29.28
2023-04-11T02:51:17.895Z,29.28
2023-04-11T02:52:17.948Z,29.26
2023-04-11T02:53:17.975Z,29.26
2023-04-11T02:54:17.947Z,29.28
2023-04-11T02:55:17.986Z,29.26
2023-04-11T02:56:18.125Z,29.28
2023-04-11T02:57:18.044Z,29.26
2023-04-11T02:58:18.289Z,29.25
2023-04-11T02:59:18.085Z,29.25
2023-04-11T03:00:18.088Z,29.26
2023-04-11T03:01:18.143Z,29.26
2023-04-11T03:02:18.279Z,29.25
2023-04-11T03:03:18.261Z,29.25
2023-04-11T03:04:18.511Z,29.25
2023-04-11T03:05:18.223Z,29.25
2023-04-11T03:06:18.260Z,29.23
2023-04-11T03:07:18.336Z,29.23
2023-04-11T03:08:18.324Z,29.23
2023-04-11T03:09:18.356Z,29.23
2023-04-11T03:10:18.383Z,29.23
2023-04-11T03:11:18.363Z,29.23
2023-04-11T03:12:18.415Z,29.23
2023-04-11T03:13:18.426Z,29.25
2023-04-11T03:14:18.453Z,29.23
2023-04-11T03:15:18.474Z,29.23
2023-04-11T03:16:18.581Z,29.23
2023-04-11T03:17:18.503Z,29.22
2023-04-11T03:18:18.570Z,29.22
2023-04-11T03:19:18.533Z,29.23
2023-04-11T03:20:18.563Z,29.23
2023-04-11T03:21:18.579Z,29.22
2023-04-11T03:22:18.608Z,29.22
2023-04-11T03:23:18.665Z,29.22
2023-04-11T03:24:18.670Z,29.22
2023-04-11T03:25:18.699Z,29.22
2023-04-11T03:26:18.752Z,29.22
2023-04-11T03:27:18.758Z,29.22
2023-04-11T03:28:18.823Z,29.19
2023-04-11T03:29:18.819Z,29.22
2023-04-11T03:30:18.836Z,29.19
2023-04-11T03:31:18.978Z,29.19
2023-04-11T03:32:18.904Z,29.20
2023-04-11T03:33:18.963Z,29.19
2023-04-11T03:34:18.928Z,29.20
2023-04-11T03:35:18.980Z,29.18
2023-04-11T03:36:19.059Z,29.19
2023-04-11T03:37:19.025Z,29.18
2023-04-11T03:38:19.064Z,29.20
2023-04-11T03:39:19.078Z,29.19
2023-04-11T03:40:19.117Z,29.18
2023-04-11T03:41:19.171Z,29.19
2023-04-11T03:42:19.230Z,29.20
2023-04-11T03:43:19.209Z,29.18
2023-04-11T03:44:19.264Z,29.16
2023-04-11T03:45:19.254Z,29.19
2023-04-11T03:46:19.323Z,29.16
2023-04-11T03:47:19.307Z,29.15
2023-04-11T03:48:20.366Z,29.16
2023-04-11T03:49:19.429Z,29.15
2023-04-11T03:50:19.440Z,29.18
2023-04-11T03:51:19.490Z,29.19
2023-04-11T03:52:19.502Z,29.15
2023-04-11T03:53:19.520Z,29.16
2023-04-11T03:54:19.511Z,29.13
2023-04-11T03:55:19.566Z,29.15
2023-04-11T03:56:19.623Z,29.13
2023-04-11T03:57:19.680Z,29.15
2023-04-11T03:58:19.682Z,29.16
2023-04-11T03:59:19.688Z,29.15
2023-04-11T04:00:19.766Z,29.13
2023-04-11T04:01:19.771Z,29.13
2023-04-11T04:02:19.927Z,29.13
2023-04-11T04:03:20.024Z,29.13
2023-04-11T04:04:19.945Z,29.13
2023-04-11T04:05:19.937Z,29.10
2023-04-11T04:06:19.973Z,29.10
2023-04-11T04:07:19.976Z,29.08
2023-04-11T04:08:20.053Z,29.06
2023-04-11T04:09:20.094Z,29.08
2023-04-11T04:10:20.132Z,29.08
2023-04-11T04:11:20.444Z,29.05
2023-04-11T04:12:20.209Z,29.03
2023-04-11T04:13:20.300Z,29.02
2023-04-11T04:14:20.352Z,29.01
2023-04-11T04:15:20.416Z,28.99
2023-04-11T04:16:20.496Z,29.01
2023-04-11T04:17:20.499Z,28.98
2023-04-11T04:18:20.540Z,28.95
2023-04-11T04:19:20.597Z,28.96
2023-04-11T04:20:20.664Z,28.95
2023-04-11T04:21:20.710Z,28.91
2023-04-11T04:22:20.739Z,28.95
2023-04-11T04:23:20.830Z,28.89
2023-04-11T04:24:20.885Z,28.91
2023-04-11T04:25:20.937Z,28.88
2023-04-11T04:26:21.007Z,28.89
2023-04-11T04:27:21.079Z,28.86
2023-04-11T04:28:21.108Z,28.86
2023-04-11T04:29:21.222Z,28.85
2023-04-11T04:30:21.284Z,28.88
2023-04-11T04:31:21.291Z,28.85
2023-04-11T04:32:21.420Z,28.83
2023-04-11T04:33:21.406Z,28.83
2023-04-11T04:34:21.498Z,28.81
2023-04-11T04:35:21.547Z,28.82
2023-04-11T04:36:21.631Z,28.82
2023-04-11T04:37:21.748Z,28.83
2023-04-11T04:38:21.736Z,28.81
2023-04-11T04:39:21.805Z,28.81
2023-04-11T04:40:21.858Z,28.83
2023-04-11T04:41:21.935Z,28.79
2023-04-11T04:42:21.982Z,28.82
2023-04-11T04:43:22.032Z,28.82
2023-04-11T04:44:22.111Z,28.85
2023-04-11T04:45:22.168Z,28.83
2023-04-11T04:46:22.278Z,28.86
2023-04-11T04:47:22.338Z,28.82
2023-04-11T04:48:22.334Z,28.85
2023-04-11T04:49:22.390Z,28.83
2023-04-11T04:50:22.567Z,28.86
2023-04-11T04:51:22.528Z,28.88
2023-04-11T04:52:22.591Z,28.88
2023-04-11T04:53:22.654Z,28.88
2023-04-11T04:54:22.674Z,28.89
2023-04-11T04:55:22.698Z,28.89
2023-04-11T04:56:22.762Z,28.92
2023-04-11T04:57:22.794Z,28.89
2023-04-11T04:58:22.869Z,28.92
2023-04-11T04:59:22.909Z,28.94
2023-04-11T05:00:23.388Z,28.94
2023-04-11T05:01:23.033Z,28.91
2023-04-11T05:02:23.442Z,28.94
2023-04-11T05:03:23.238Z,28.92
2023-04-11T05:04:23.308Z,28.92
2023-04-11T05:05:23.233Z,28.92
2023-04-11T05:06:23.276Z,28.91
2023-04-11T05:07:23.323Z,28.94
2023-04-11T05:08:23.415Z,28.89
2023-04-11T05:09:23.448Z,28.94
2023-04-11T05:10:23.492Z,28.89
2023-04-11T05:11:23.533Z,28.89
2023-04-11T05:12:23.564Z,28.91
2023-04-11T05:13:23.701Z,28.91
2023-04-11T05:14:23.720Z,28.86
2023-04-11T05:15:23.766Z,28.85
2023-04-11T05:16:23.944Z,28.83
2023-04-11T05:17:25.374Z,28.83
2023-04-11T05:18:23.937Z,28.78
2023-04-11T05:19:24.012Z,28.76
2023-04-11T05:20:24.048Z,28.78
2023-04-11T05:21:24.110Z,28.74
2023-04-11T05:22:24.208Z,28.72
2023-04-11T05:23:24.267Z,28.72
2023-04-11T05:24:24.331Z,28.71
2023-04-11T05:25:24.351Z,28.67
2023-04-11T05:26:24.382Z,28.67
2023-04-11T05:27:24.514Z,28.65
2023-04-11T05:28:24.526Z,28.65
2023-04-11T05:29:24.543Z,28.64
2023-04-11T05:30:24.619Z,28.62
2023-04-11T05:31:24.669Z,28.62
2023-04-11T05:32:24.697Z,28.61
2023-04-11T05:33:24.682Z,28.58
2023-04-11T05:34:25.501Z,28.57
2023-04-11T05:35:24.726Z,28.55
2023-04-11T05:36:24.801Z,28.55
2023-04-11T05:37:24.769Z,28.51
2023-04-11T05:38:24.763Z,28.51
2023-04-11T05:39:24.863Z,28.50
2023-04-11T05:40:24.803Z,28.48
2023-04-11T05:41:24.781Z,28.45
2023-04-11T05:42:24.765Z,28.41
2023-04-11T05:43:24.965Z,28.38
2023-04-11T05:44:24.849Z,28.33
2023-04-11T05:45:24.830Z,28.23
2023-04-11T05:46:24.918Z,28.10
2023-04-11T05:47:25.005Z,28.01
2023-04-11T05:48:25.948Z,27.87
2023-04-11T05:49:25.084Z,27.87
2023-04-11T05:50:25.140Z,27.84
2023-04-11T05:51:25.206Z,27.83
2023-04-11T05:52:25.280Z,27.80
2023-04-11T05:53:25.310Z,27.76
2023-04-11T05:54:25.478Z,27.74
2023-04-11T05:55:25.451Z,27.70
2023-04-11T05:56:26.476Z,27.69
2023-04-11T05:57:26.478Z,27.73
2023-04-11T05:58:25.651Z,27.74
2023-04-11T05:59:27.712Z,27.77
2023-04-11T06:00:25.683Z,27.80
2023-04-11T06:01:25.693Z,27.84
2023-04-11T06:02:25.791Z,27.87
2023-04-11T06:03:25.784Z,27.94
2023-04-11T06:04:40.538Z,28.01
2023-04-11T06:05:25.651Z,28.04
2023-04-11T06:06:25.662Z,28.10
2023-04-11T06:07:25.964Z,28.15
2023-04-11T06:08:25.990Z,28.21
2023-04-11T06:09:25.981Z,28.28
2023-04-11T06:10:26.057Z,28.33
2023-04-11T06:11:25.604Z,28.37
2023-04-11T06:12:25.588Z,28.43
2023-04-11T06:13:25.656Z,28.43
2023-04-11T06:14:25.568Z,28.48
2023-04-11T06:15:25.931Z,28.52
2023-04-11T06:16:25.621Z,28.58
2023-04-11T06:17:25.585Z,28.59
2023-04-11T06:18:25.540Z,28.64
2023-04-11T06:19:25.541Z,28.65
2023-04-11T06:20:25.554Z,28.69
2023-04-11T06:21:25.497Z,28.71
2023-04-11T06:22:25.532Z,28.74
2023-04-11T06:23:25.528Z,28.78
2023-04-11T06:24:25.509Z,28.78
2023-04-11T06:25:26.009Z,28.81
2023-04-11T06:26:25.538Z,28.82
2023-04-11T06:27:25.482Z,28.86
2023-04-11T06:28:25.503Z,28.89
2023-04-11T06:29:25.506Z,28.91
2023-04-11T06:30:26.000Z,28.92
2023-04-11T06:31:25.542Z,28.92
2023-04-11T06:32:25.539Z,28.96
2023-04-11T06:33:25.441Z,28.96
2023-04-11T06:34:25.437Z,28.99
2023-04-11T06:35:25.429Z,29.02
2023-04-11T06:36:25.483Z,29.05
2023-04-11T06:37:25.466Z,29.02
2023-04-11T06:38:25.421Z,28.94
2023-04-11T06:39:25.414Z,28.83
2023-04-11T06:40:25.472Z,28.72
2023-04-11T06:41:25.991Z,28.57
2023-04-11T06:42:25.374Z,28.37
2023-04-11T06:43:25.390Z,28.20
2023-04-11T06:44:25.398Z,28.08
2023-04-11T06:45:25.370Z,27.97
2023-04-11T06:46:25.464Z,27.87
2023-04-11T06:47:25.438Z,27.79
2023-04-11T06:48:25.392Z,27.72
2023-04-11T06:49:26.013Z,27.73
2023-04-11T06:50:25.401Z,27.73
2023-04-11T06:51:25.976Z,27.72
2023-04-11T06:52:27.551Z,27.79
2023-04-11T06:53:25.357Z,27.83
2023-04-11T06:54:25.366Z,27.89
2023-04-11T06:55:25.542Z,27.94
2023-04-11T06:56:25.352Z,28.03
2023-04-11T06:57:25.340Z,28.05
2023-04-11T06:58:25.354Z,28.11
2023-04-11T06:59:25.370Z,28.17
2023-04-11T07:00:25.369Z,28.24
2023-04-11T07:01:25.599Z,28.27
2023-04-11T07:02:25.493Z,28.28
2023-04-11T07:03:25.549Z,28.35
2023-04-11T07:04:25.372Z,28.37
2023-04-11T07:05:25.299Z,28.40
2023-04-11T07:06:25.308Z,28.47
2023-04-11T07:07:25.317Z,28.50
2023-04-11T07:08:25.283Z,28.51
2023-04-11T07:09:25.253Z,28.55
2023-04-11T07:10:25.294Z,28.58
2023-04-11T07:11:25.289Z,28.59
2023-04-11T07:12:25.256Z,28.61
2023-04-11T07:13:25.257Z,28.65
2023-04-11T07:14:25.370Z,28.68
2023-04-11T07:15:25.270Z,28.68
2023-04-11T07:16:25.237Z,28.74
2023-04-11T07:17:25.241Z,28.74
2023-04-11T07:18:25.235Z,28.74
2023-04-11T07:19:25.186Z,28.76
2023-04-11T07:20:25.209Z,28.78
2023-04-11T07:21:25.202Z,28.78
2023-04-11T07:22:25.165Z,28.78
2023-04-11T07:23:25.151Z,28.81
2023-04-11T07:24:25.179Z,28.82
2023-04-11T07:25:25.125Z,28.83
2023-04-11T07:26:25.137Z,28.86
2023-04-11T07:27:25.099Z,28.86
2023-04-11T07:28:25.114Z,28.88
2023-04-11T07:29:25.159Z,28.88
2023-04-11T07:30:25.185Z,28.91
2023-04-11T07:31:25.528Z,28.92
2023-04-11T07:32:25.153Z,28.88
2023-04-11T07:33:25.083Z,28.83
2023-04-11T07:34:25.094Z,28.85
2023-04-11T07:35:25.095Z,28.83
2023-04-11T07:36:25.110Z,28.69
2023-04-11T07:37:25.099Z,28.67
2023-04-11T07:38:25.055Z,28.61
2023-04-11T07:39:25.058Z,28.55
2023-04-11T07:40:25.052Z,28.52
2023-04-11T07:41:25.032Z,28.51
2023-04-11T07:42:25.029Z,28.54
2023-04-11T07:43:25.041Z,28.52
2023-04-11T07:44:25.050Z,28.55
2023-04-11T07:45:25.116Z,28.55
2023-04-11T07:46:24.994Z,28.55
2023-04-11T07:47:24.996Z,28.58
2023-04-11T07:48:24.994Z,28.61
2023-04-11T07:49:24.988Z,28.61
2023-04-11T07:50:24.993Z,28.65
2023-04-11T07:51:24.991Z,28.68
2023-04-11T07:52:25.004Z,28.68
2023-04-11T07:53:24.955Z,28.71
2023-04-11T07:54:24.935Z,28.71
2023-04-11T07:55:24.977Z,28.74
2023-04-11T07:56:24.926Z,28.75
2023-04-11T07:57:24.969Z,28.78
2023-04-11T07:58:25.043Z,28.79
2023-04-11T07:59:25.095Z,28.79
2023-04-11T08:00:25.146Z,28.83
2023-04-11T08:01:25.217Z,28.83
2023-04-11T08:02:25.366Z,28.85
2023-04-11T08:03:25.602Z,28.89
2023-04-11T08:04:25.528Z,28.88
2023-04-11T08:05:25.564Z,28.88
2023-04-11T08:06:25.544Z,28.91
2023-04-11T08:07:25.603Z,28.91
2023-04-11T08:08:25.657Z,28.92
2023-04-11T08:09:25.736Z,28.92
2023-04-11T08:10:25.779Z,28.96
2023-04-11T08:11:25.856Z,28.95
2023-04-11T08:12:25.920Z,28.96
2023-04-11T08:13:25.980Z,28.95
2023-04-11T08:14:26.023Z,28.98
2023-04-11T08:15:27.051Z,28.96
2023-04-11T08:16:26.600Z,28.98
2023-04-11T08:17:28.657Z,28.99
2023-04-11T08:18:26.225Z,28.99
2023-04-11T08:19:26.174Z,29.01
2023-04-11T08:20:26.173Z,29.01
2023-04-11T08:21:26.141Z,28.99
2023-04-11T08:22:26.158Z,29.02
2023-04-11T08:23:26.095Z,29.02
2023-04-11T08:24:26.135Z,29.03
2023-04-11T08:25:26.104Z,29.03
2023-04-11T08:26:26.083Z,29.01
2023-04-11T08:27:26.101Z,29.05
2023-04-11T08:28:26.512Z,29.03
2023-04-11T08:29:26.537Z,29.09
2023-04-11T08:30:27.120Z,29.05
2023-04-11T08:31:26.086Z,29.08
2023-04-11T08:32:26.120Z,29.06
2023-04-11T08:33:26.052Z,29.08
2023-04-11T08:34:26.057Z,29.06
2023-04-11T08:35:26.089Z,29.03
2023-04-11T08:36:26.028Z,29.03
2023-04-11T08:37:25.997Z,28.99
2023-04-11T08:38:26.042Z,28.92
2023-04-11T08:39:26.053Z,28.82
2023-04-11T08:40:27.113Z,28.65
2023-04-11T08:41:26.061Z,28.33
2023-04-11T08:42:26.025Z,28.13
2023-04-11T08:43:25.976Z,28.07
2023-04-11T08:44:25.953Z,28.03
2023-04-11T08:45:25.953Z,28.00
2023-04-11T08:46:26.104Z,28.01
2023-04-11T08:47:25.980Z,28.04
2023-04-11T08:48:25.935Z,28.07
2023-04-11T08:49:26.065Z,28.14
2023-04-11T08:50:25.938Z,28.17
2023-04-11T08:51:25.926Z,28.21
2023-04-11T08:52:25.900Z,28.28
2023-04-11T08:53:26.014Z,28.37
2023-04-11T08:54:25.870Z,28.41
2023-04-11T08:55:25.952Z,28.48
2023-04-11T08:56:25.899Z,28.51
2023-04-11T08:57:25.923Z,28.58
2023-04-11T08:58:25.866Z,28.62
2023-04-11T08:59:25.888Z,28.67
2023-04-11T09:00:25.882Z,28.68
2023-04-11T09:01:25.963Z,28.74
2023-04-11T09:02:26.177Z,28.76
2023-04-11T09:03:26.306Z,28.82
2023-04-11T09:04:26.199Z,28.83
2023-04-11T09:05:26.222Z,28.88
2023-04-11T09:06:26.245Z,28.91
2023-04-11T09:07:26.268Z,28.94
2023-04-11T09:08:26.354Z,28.99
2023-04-11T09:09:26.350Z,29.02
2023-04-11T09:10:26.392Z,29.02
2023-04-11T09:11:26.475Z,29.03
2023-04-11T09:12:27.520Z,29.06
2023-04-11T09:13:26.660Z,29.10
2023-04-11T09:14:26.826Z,29.12
2023-04-11T09:15:26.791Z,29.13
2023-04-11T09:16:27.579Z,29.15
2023-04-11T09:17:26.872Z,29.18
2023-04-11T09:18:26.869Z,29.19
2023-04-11T09:19:26.883Z,29.20
2023-04-11T09:20:26.952Z,29.22
2023-04-11T09:21:26.953Z,29.26
2023-04-11T09:22:26.981Z,29.23
2023-04-11T09:23:27.355Z,29.29
2023-04-11T09:24:27.032Z,29.30
2023-04-11T09:25:27.047Z,29.28
2023-04-11T09:26:27.055Z,29.32
2023-04-11T09:27:27.095Z,29.30
2023-04-11T09:28:27.142Z,29.33
2023-04-11T09:29:27.128Z,29.33
2023-04-11T09:30:27.198Z,29.37
2023-04-11T09:31:27.238Z,29.36
2023-04-11T09:32:27.217Z,29.34
2023-04-11T09:33:27.254Z,29.36
2023-04-11T09:34:27.290Z,29.12
2023-04-11T09:35:27.362Z,28.94
2023-04-11T09:36:27.426Z,28.65
2023-04-11T09:37:27.394Z,28.38
2023-04-11T09:38:27.443Z,28.31
2023-04-11T09:39:27.414Z,28.20
2023-04-11T09:40:27.495Z,28.11
2023-04-11T09:41:27.625Z,28.04
2023-04-11T09:42:27.568Z,28.04
2023-04-11T09:43:27.635Z,28.01
2023-04-11T09:44:27.622Z,28.04
2023-04-11T09:45:27.710Z,28.10
2023-04-11T09:46:27.724Z,28.13
2023-04-11T09:47:27.742Z,28.21
2023-04-11T09:48:43.326Z,28.28
2023-04-11T09:49:28.698Z,28.34
2023-04-11T09:50:27.698Z,28.38
2023-04-11T09:51:36.469Z,28.43
2023-04-11T09:52:28.719Z,28.52
2023-04-11T09:53:27.699Z,28.58
2023-04-11T09:54:27.699Z,28.64
2023-04-11T09:55:27.722Z,28.69
2023-04-11T09:56:27.648Z,28.78
2023-04-11T09:57:27.679Z,28.83
2023-04-11T09:58:28.773Z,28.86
2023-04-11T09:59:27.782Z,28.91
2023-04-11T10:00:27.855Z,28.96
2023-04-11T10:01:27.845Z,29.02
2023-04-11T10:02:28.017Z,29.05
2023-04-11T10:03:28.028Z,29.08
2023-04-11T10:04:27.997Z,29.12
2023-04-11T10:05:28.094Z,29.12
2023-04-11T10:06:28.041Z,29.16
2023-04-11T10:07:28.097Z,29.15
2023-04-11T10:08:28.160Z,29.16
2023-04-11T10:09:28.165Z,29.15
2023-04-11T10:10:28.199Z,29.13
2023-04-11T10:11:28.607Z,29.15
2023-04-11T10:12:28.285Z,29.13
2023-04-11T10:13:28.342Z,29.15
2023-04-11T10:14:28.410Z,29.10
2023-04-11T10:15:28.460Z,29.10
2023-04-11T10:16:28.589Z,29.12
2023-04-11T10:17:28.616Z,29.12
2023-04-11T10:18:28.615Z,29.13
2023-04-11T10:19:28.651Z,29.15
2023-04-11T10:20:28.703Z,29.12
2023-04-11T10:21:28.749Z,29.10
2023-04-11T10:22:28.825Z,29.12
2023-04-11T10:23:28.891Z,29.12
2023-04-11T10:24:28.937Z,29.13
2023-04-11T10:25:28.993Z,29.05
2023-04-11T10:26:28.989Z,29.10
2023-04-11T10:27:29.047Z,29.05
2023-04-11T10:28:29.127Z,29.06
2023-04-11T10:29:29.178Z,29.08
2023-04-11T10:30:29.239Z,29.10
2023-04-11T10:31:29.265Z,29.10
2023-04-11T10:32:29.317Z,29.10
2023-04-11T10:33:29.308Z,29.12
2023-04-11T10:34:29.346Z,29.12
2023-04-11T10:35:29.439Z,29.18
2023-04-11T10:36:29.407Z,29.22
2023-04-11T10:37:29.478Z,29.20
2023-04-11T10:38:29.481Z,29.25
2023-04-11T10:39:29.496Z,29.28
2023-04-11T10:40:29.543Z,29.29
2023-04-11T10:41:30.060Z,29.32
2023-04-11T10:42:29.631Z,29.36
2023-04-11T10:43:29.615Z,29.39
2023-04-11T10:44:29.624Z,29.45
2023-04-11T10:45:29.662Z,29.49
2023-04-11T10:46:30.126Z,29.50
2023-04-11T10:47:29.665Z,29.56
2023-04-11T10:48:29.663Z,29.56
2023-04-11T10:49:29.622Z,29.54
2023-04-11T10:50:29.697Z,29.57
2023-04-11T10:51:29.631Z,29.59
2023-04-11T10:52:29.695Z,29.60
2023-04-11T10:53:29.647Z,29.60
2023-04-11T10:54:29.646Z,29.64
2023-04-11T10:55:29.684Z,29.67
2023-04-11T10:56:29.675Z,29.67
2023-04-11T10:57:29.672Z,29.69
2023-04-11T10:58:29.672Z,29.70
2023-04-11T10:59:29.673Z,29.70
2023-04-11T11:00:30.657Z,29.73
2023-04-11T11:01:37.137Z,29.71
2023-04-11T11:02:30.839Z,29.71
2023-04-11T11:03:29.751Z,29.73
2023-04-11T11:04:29.745Z,29.76
2023-04-11T11:05:29.759Z,29.74
2023-04-11T11:06:29.693Z,29.79
2023-04-11T11:07:29.638Z,29.79
2023-04-11T11:08:29.632Z,29.80
2023-04-11T11:09:29.612Z,29.79
2023-04-11T11:10:29.667Z,29.79
2023-04-11T11:11:30.115Z,29.80
2023-04-11T11:12:29.627Z,29.81
2023-04-11T11:13:29.634Z,29.81
2023-04-11T11:14:29.635Z,29.83
2023-04-11T11:15:29.616Z,29.84
2023-04-11T11:16:29.622Z,29.84
2023-04-11T11:17:29.641Z,29.80
2023-04-11T11:18:29.614Z,29.80
2023-04-11T11:19:29.710Z,29.84
2023-04-11T11:20:29.680Z,29.81
2023-04-11T11:21:29.665Z,29.77
2023-04-11T11:22:29.696Z,29.73
2023-04-11T11:23:29.803Z,29.69
2023-04-11T11:24:30.108Z,29.69
2023-04-11T11:25:29.705Z,29.67
2023-04-11T11:26:29.721Z,29.63
2023-04-11T11:27:29.717Z,29.63
2023-04-11T11:28:29.756Z,29.64
2023-04-11T11:29:30.154Z,29.63
2023-04-11T11:30:29.795Z,29.64
2023-04-11T11:31:29.961Z,29.63
2023-04-11T11:32:30.038Z,29.64
2023-04-11T11:33:29.812Z,29.64
2023-04-11T11:34:29.854Z,29.64
2023-04-11T11:35:29.829Z,29.64
2023-04-11T11:36:29.905Z,29.61
2023-04-11T11:37:29.882Z,29.61
2023-04-11T11:38:29.837Z,29.63
2023-04-11T11:39:29.926Z,29.63
2023-04-11T11:40:29.849Z,29.60
2023-04-11T11:41:29.860Z,29.60
2023-04-11T11:42:29.932Z,29.60
2023-04-11T11:43:29.928Z,29.63
2023-04-11T11:44:29.927Z,29.61
2023-04-11T11:45:29.947Z,29.59
2023-04-11T11:46:29.926Z,29.61
2023-04-11T11:47:29.931Z,29.60
2023-04-11T11:48:29.969Z,29.57
2023-04-11T11:49:29.937Z,29.61
2023-04-11T11:50:29.936Z,29.57
2023-04-11T11:51:29.937Z,29.56
2023-04-11T11:52:29.942Z,29.59
2023-04-11T11:53:30.001Z,29.54
2023-04-11T11:54:30.013Z,29.54
2023-04-11T11:55:29.990Z,29.53
2023-04-11T11:56:30.024Z,29.53
2023-04-11T11:57:30.061Z,29.50
2023-04-11T11:58:30.115Z,29.49
2023-04-11T11:59:30.132Z,29.46
2023-04-11T12:00:30.138Z,29.43
2023-04-11T12:01:30.136Z,29.42
2023-04-11T12:02:30.253Z,29.45
2023-04-11T12:03:30.345Z,29.39
2023-04-11T12:04:30.311Z,29.37
2023-04-11T12:05:30.829Z,29.33
2023-04-11T12:06:30.295Z,29.20
2023-04-11T12:07:31.071Z,29.18
2023-04-11T12:08:30.359Z,29.05
2023-04-11T12:09:30.456Z,29.05
2023-04-11T12:10:30.534Z,29.02
2023-04-11T12:11:30.561Z,28.95
2023-04-11T12:12:30.617Z,28.85
2023-04-11T12:13:30.556Z,28.76
2023-04-11T12:14:30.559Z,28.69
2023-04-11T12:15:30.672Z,28.71
2023-04-11T12:16:30.689Z,28.68
2023-04-11T12:17:30.634Z,28.62
2023-04-11T12:18:30.636Z,28.59
2023-04-11T12:19:30.689Z,28.54
2023-04-11T12:20:30.727Z,28.47
2023-04-11T12:21:30.674Z,28.44
2023-04-11T12:22:30.736Z,28.40
2023-04-11T12:23:30.733Z,28.41
2023-04-11T12:24:30.762Z,28.35
2023-04-11T12:25:30.846Z,28.31
2023-04-11T12:26:30.827Z,28.30
2023-04-11T12:27:30.880Z,28.30
2023-04-11T12:28:30.870Z,28.24
2023-04-11T12:29:30.941Z,28.24
2023-04-11T12:30:30.972Z,28.23
2023-04-11T12:31:31.050Z,28.25
2023-04-11T12:32:31.041Z,28.24
2023-04-11T12:33:31.076Z,28.21
2023-04-11T12:34:31.081Z,28.24
2023-04-11T12:35:31.079Z,28.23
2023-04-11T12:37:31.115Z,28.23
2023-04-11T12:38:31.140Z,28.23
2023-04-11T12:39:31.161Z,28.17
2023-04-11T12:40:31.254Z,28.14
2023-04-11T12:41:32.529Z,28.07
2023-04-11T12:42:31.455Z,28.01
2023-04-11T12:43:31.345Z,27.94
2023-04-11T12:44:31.454Z,27.87
2023-04-11T12:45:31.455Z,27.79
2023-04-11T12:46:31.594Z,27.72
2023-04-11T12:47:31.613Z,27.64
2023-04-11T12:48:31.633Z,27.56
2023-04-11T12:49:31.699Z,27.57
2023-04-11T12:50:31.698Z,27.60
2023-04-11T12:51:31.791Z,27.67
2023-04-11T12:52:31.819Z,27.67
2023-04-11T12:53:46.699Z,27.73